Time;durP1;ratioP1;P1;durP2;ratioP2;P2;SDS_P1;SDS_P2;PMS_P1;PMS_P2;Temp;Humidity;BMP_temperature;BMP_pressure;BME280_temperature;BME280_humidity;BME280_pressure;Samples;Min_cycle;Max_cycle;Signal;HPM_P1;HPM_P2
2021/10/21 00:00:08;;;;;;;30.30;14.57;;;;;;;;;;4914752;29;20040;-37
2021/10/21 00:02:39;;;;;;;29.95;17.15;;;;;;;;;;4916364;29;20031;-37
2021/10/21 00:05:06;;;;;;;29.73;16.42;;;;;;;;;;4915776;29;20028;-37
2021/10/21 00:07:31;;;;;;;24.80;13.48;;;;;;;;;;4915676;29;20028;-37
2021/10/21 00:09:59;;;;;;;30.60;15.80;;;;;;;;;;4915662;29;20031;-37
2021/10/21 00:12:25;;;;;;;29.55;16.08;;;;;;;;;;4915553;29;20027;-37
2021/10/21 00:14:50;;;;;;;34.20;17.67;;;;;;;;;;4915615;29;20038;-37
2021/10/21 00:17:15;;;;;;;21.77;13.90;;;;;;;;;;4915745;29;20028;-37
2021/10/21 00:19:41;;;;;;;23.65;13.05;;;;;;;;;;4915484;29;20044;-37
2021/10/21 00:22:06;;;;;;;23.33;13.13;;;;;;;;;;4915782;29;20024;-37
2021/10/21 00:24:32;;;;;;;25.25;14.02;;;;;;;;;;4915467;29;20054;-37
2021/10/21 00:26:58;;;;;;;27.88;14.15;;;;;;;;;;4915663;29;20028;-37
2021/10/21 00:29:23;;;;;;;22.80;14.23;;;;;;;;;;4914089;29;20055;-37
2021/10/21 00:31:49;;;;;;;22.25;12.93;;;;;;;;;;4915420;29;20079;-37
2021/10/21 00:34:16;;;;;;;21.10;12.02;;;;;;;;;;4915058;29;20078;-37
2021/10/21 00:36:42;;;;;;;24.33;13.50;;;;;;;;;;4915281;29;20052;-36
2021/10/21 00:39:08;;;;;;;12.65;7.47;;;;;;;;;;4915273;29;20036;-37
2021/10/21 00:41:33;;;;;;;20.75;11.90;;;;;;;;;;4915389;29;20028;-38
2021/10/21 00:44:08;;;;;;;17.92;11.40;;;;;;;;;;4915333;29;20472;-37
2021/10/21 00:46:33;;;;;;;19.50;12.57;;;;;;;;;;4913335;29;20403;-37
2021/10/21 00:48:58;;;;;;;18.60;12.00;;;;;;;;;;4915130;29;20024;-36
2021/10/21 00:51:24;;;;;;;21.30;11.98;;;;;;;;;;4915114;29;20033;-37
2021/10/21 00:53:49;;;;;;;18.17;11.52;;;;;;;;;;4929865;29;20020;-37
2021/10/21 00:56:18;;;;;;;21.25;13.80;;;;;;;;;;4915074;29;20152;-37
2021/10/21 00:58:44;;;;;;;20.02;10.57;;;;;;;;;;4915336;29;20016;-37
2021/10/21 01:01:10;;;;;;;21.20;10.65;;;;;;;;;;4915035;29;20047;-37
2021/10/21 01:03:35;;;;;;;19.02;11.35;;;;;;;;;;4915060;29;20499;-37
2021/10/21 01:06:01;;;;;;;25.20;12.77;;;;;;;;;;4915083;29;20091;-37
2021/10/21 01:08:26;;;;;;;20.13;12.02;;;;;;;;;;4914921;29;20021;-37
2021/10/21 01:10:53;;;;;;;23.20;12.40;;;;;;;;;;4914973;29;20526;-37
2021/10/21 01:13:18;;;;;;;23.38;12.32;;;;;;;;;;4915051;29;20059;-37
2021/10/21 01:15:44;;;;;;;20.05;11.60;;;;;;;;;;4914800;29;20028;-37
2021/10/21 01:18:09;;;;;;;18.27;11.02;;;;;;;;;;4914941;29;20076;-37
2021/10/21 01:20:34;;;;;;;19.98;11.50;;;;;;;;;;4913933;29;20047;-37
2021/10/21 01:23:00;;;;;;;18.48;10.70;;;;;;;;;;4915118;29;20042;-37
2021/10/21 01:25:25;;;;;;;16.15;10.55;;;;;;;;;;4913661;29;20419;-36
2021/10/21 01:27:51;;;;;;;16.70;9.98;;;;;;;;;;4915207;29;20036;-37
2021/10/21 01:30:24;;;;;;;20.02;9.95;;;;;;;;;;4914588;29;20447;-37
2021/10/21 01:32:50;;;;;;;18.85;11.40;;;;;;;;;;4914724;29;20055;-37
2021/10/21 01:35:15;;;;;;;21.05;11.57;;;;;;;;;;4914676;29;20039;-37
2021/10/21 01:37:41;;;;;;;15.38;9.95;;;;;;;;;;4914993;29;20044;-37
2021/10/21 01:40:10;;;;;;;17.25;9.63;;;;;;;;;;4914756;29;20023;-37
2021/10/21 01:42:37;;;;;;;13.27;7.82;;;;;;;;;;4914982;29;20432;-37
2021/10/21 01:45:02;;;;;;;16.25;8.48;;;;;;;;;;4929531;29;20032;-37
2021/10/21 01:47:28;;;;;;;18.42;10.40;;;;;;;;;;4914630;29;20479;-37
2021/10/21 01:49:53;;;;;;;18.15;9.73;;;;;;;;;;4914935;29;20028;-37
2021/10/21 01:52:18;;;;;;;19.20;8.75;;;;;;;;;;4914544;29;20517;-37
2021/10/21 01:54:44;;;;;;;14.52;7.72;;;;;;;;;;4914648;29;20028;-37
2021/10/21 01:57:09;;;;;;;12.55;8.45;;;;;;;;;;4914886;29;20048;-37
2021/10/21 01:59:35;;;;;;;13.52;7.60;;;;;;;;;;4917161;29;20387;-37
2021/10/21 02:02:00;;;;;;;14.32;7.65;;;;;;;;;;4918026;29;20111;-37
2021/10/21 02:04:25;;;;;;;16.30;9.05;;;;;;;;;;4917947;29;20039;-37
2021/10/21 02:06:51;;;;;;;14.73;7.68;;;;;;;;;;4918353;29;20099;-37
2021/10/21 02:09:16;;;;;;;12.98;8.50;;;;;;;;;;4918055;29;20490;-37
2021/10/21 02:11:41;;;;;;;13.13;7.95;;;;;;;;;;4917914;29;20039;-37
2021/10/21 02:14:07;;;;;;;16.23;7.70;;;;;;;;;;4917753;29;20023;-37
2021/10/21 02:16:32;;;;;;;14.68;7.68;;;;;;;;;;4917752;29;20479;-37
2021/10/21 02:18:57;;;;;;;10.88;7.32;;;;;;;;;;4917713;29;20349;-37
2021/10/21 02:21:23;;;;;;;9.63;7.38;;;;;;;;;;4917872;29;20040;-37
2021/10/21 02:23:48;;;;;;;11.68;7.53;;;;;;;;;;4917960;29;20036;-37
2021/10/21 02:26:14;;;;;;;17.63;7.30;;;;;;;;;;4917435;29;20044;-37
2021/10/21 02:28:39;;;;;;;12.07;7.25;;;;;;;;;;4917595;29;20043;-37
2021/10/21 02:31:05;;;;;;;9.80;6.50;;;;;;;;;;4917806;29;20040;-37
2021/10/21 02:33:30;;;;;;;13.10;7.32;;;;;;;;;;4917321;29;20052;-37
2021/10/21 02:35:55;;;;;;;12.80;7.50;;;;;;;;;;4917600;29;20503;-37
2021/10/21 02:38:21;;;;;;;14.15;6.95;;;;;;;;;;4917429;29;20688;-37
2021/10/21 02:40:46;;;;;;;10.10;7.50;;;;;;;;;;4917298;29;20369;-37
2021/10/21 02:43:13;;;;;;;11.30;6.85;;;;;;;;;;4917282;29;20035;-37
2021/10/21 02:45:39;;;;;;;10.18;6.20;;;;;;;;;;4917316;29;20550;-37
2021/10/21 02:48:05;;;;;;;14.77;7.97;;;;;;;;;;4917213;29;20028;-37
2021/10/21 02:50:30;;;;;;;15.05;6.97;;;;;;;;;;4917090;29;20032;-37
2021/10/21 02:52:55;;;;;;;12.10;7.88;;;;;;;;;;4917245;29;20028;-37
2021/10/21 02:55:22;;;;;;;18.90;8.80;;;;;;;;;;4917009;29;20068;-37
2021/10/21 02:57:47;;;;;;;13.15;7.88;;;;;;;;;;4915731;29;20472;-37
2021/10/21 03:00:13;;;;;;;15.23;8.63;;;;;;;;;;4917092;29;20120;-37
2021/10/21 03:02:39;;;;;;;13.20;7.45;;;;;;;;;;4916881;29;20028;-37
2021/10/21 03:05:05;;;;;;;13.57;8.18;;;;;;;;;;4917010;29;20032;-37
2021/10/21 03:07:30;;;;;;;15.27;7.65;;;;;;;;;;4916921;29;20043;-37
2021/10/21 03:09:55;;;;;;;14.57;8.10;;;;;;;;;;4916252;29;20043;-37
2021/10/21 03:12:21;;;;;;;12.73;7.60;;;;;;;;;;4915507;29;20471;-37
2021/10/21 03:14:46;;;;;;;15.80;8.63;;;;;;;;;;4915500;29;20031;-37
2021/10/21 03:17:12;;;;;;;18.92;8.77;;;;;;;;;;4916591;29;20075;-37
2021/10/21 03:19:38;;;;;;;14.88;8.35;;;;;;;;;;4916685;29;20050;-37
2021/10/21 03:22:03;;;;;;;20.20;10.25;;;;;;;;;;4916607;29;20412;-37
2021/10/21 03:24:29;;;;;;;17.35;9.00;;;;;;;;;;4916454;29;20032;-37
2021/10/21 03:26:54;;;;;;;16.95;10.13;;;;;;;;;;4916514;29;20028;-37
2021/10/21 03:29:19;;;;;;;20.52;11.27;;;;;;;;;;4916612;29;20059;-37
2021/10/21 03:31:45;;;;;;;18.30;11.23;;;;;;;;;;4916416;29;20033;-37
2021/10/21 03:34:10;;;;;;;19.60;10.07;;;;;;;;;;4916156;29;20044;-37
2021/10/21 03:36:36;;;;;;;20.50;8.70;;;;;;;;;;4916236;29;20051;-37
2021/10/21 03:39:01;;;;;;;16.15;9.52;;;;;;;;;;4916229;29;20507;-37
2021/10/21 03:41:27;;;;;;;19.88;10.00;;;;;;;;;;4916180;29;20051;-37
2021/10/21 03:43:52;;;;;;;19.27;10.85;;;;;;;;;;4916264;29;20055;-37
2021/10/21 03:46:18;;;;;;;18.80;10.75;;;;;;;;;;4916066;29;20099;-37
2021/10/21 03:48:43;;;;;;;25.05;10.68;;;;;;;;;;4930713;29;20502;-37
2021/10/21 03:51:09;;;;;;;23.75;12.07;;;;;;;;;;4916119;29;20148;-37
2021/10/21 03:53:35;;;;;;;18.63;11.63;;;;;;;;;;4915823;29;20032;-37
2021/10/21 03:56:00;;;;;;;21.20;11.20;;;;;;;;;;4916077;29;20062;-37
2021/10/21 03:58:26;;;;;;;23.35;12.13;;;;;;;;;;4916058;29;20084;-37
2021/10/21 04:00:51;;;;;;;19.35;10.10;;;;;;;;;;4916092;29;20080;-37
2021/10/21 04:03:16;;;;;;;25.48;11.85;;;;;;;;;;4915808;29;20036;-37
2021/10/21 04:05:42;;;;;;;27.02;13.50;;;;;;;;;;4914593;29;20032;-37
2021/10/21 04:08:07;;;;;;;22.67;12.60;;;;;;;;;;4915762;29;20039;-37
2021/10/21 04:10:33;;;;;;;24.50;11.75;;;;;;;;;;4915934;29;20028;-37
2021/10/21 04:12:58;;;;;;;24.10;12.95;;;;;;;;;;4915893;29;20028;-37
2021/10/21 04:15:26;;;;;;;25.27;12.40;;;;;;;;;;4915645;29;20379;-37
2021/10/21 04:17:52;;;;;;;26.73;13.68;;;;;;;;;;4915525;29;20062;-37
2021/10/21 04:20:18;;;;;;;31.85;12.80;;;;;;;;;;4915500;29;20032;-37
2021/10/21 04:22:43;;;;;;;21.92;12.32;;;;;;;;;;4914935;29;20032;-38
2021/10/21 04:25:09;;;;;;;22.05;13.10;;;;;;;;;;4915559;29;20032;-39
2021/10/21 04:27:34;;;;;;;26.67;14.32;;;;;;;;;;4915327;29;20036;-37
2021/10/21 04:30:00;;;;;;;24.33;12.98;;;;;;;;;;4915471;29;20020;-37
2021/10/21 04:32:25;;;;;;;23.83;13.25;;;;;;;;;;4915370;29;20396;-37
2021/10/21 04:34:50;;;;;;;24.02;12.93;;;;;;;;;;4915652;29;20086;-37
2021/10/21 04:37:16;;;;;;;17.50;11.98;;;;;;;;;;4915177;29;20071;-37
2021/10/21 04:39:41;;;;;;;20.10;11.35;;;;;;;;;;4915344;29;20542;-37
2021/10/21 04:42:07;;;;;;;24.55;12.55;;;;;;;;;;4915302;29;20064;-37
2021/10/21 04:44:32;;;;;;;20.42;10.88;;;;;;;;;;4915125;29;20040;-38
2021/10/21 04:46:58;;;;;;;22.77;12.00;;;;;;;;;;4915323;29;20047;-37
2021/10/21 04:49:24;;;;;;;26.38;12.75;;;;;;;;;;4915090;29;20016;-37
2021/10/21 04:51:49;;;;;;;21.95;11.98;;;;;;;;;;4915248;29;20039;-37
2021/10/21 04:54:15;;;;;;;24.00;11.88;;;;;;;;;;4915424;29;20144;-37
2021/10/21 04:56:41;;;;;;;23.67;12.25;;;;;;;;;;4914983;29;20487;-38
2021/10/21 04:59:06;;;;;;;22.98;12.32;;;;;;;;;;4915076;29;20020;-37
2021/10/21 05:01:32;;;;;;;23.38;12.98;;;;;;;;;;4915248;29;20479;-37
2021/10/21 05:03:57;;;;;;;22.05;12.25;;;;;;;;;;4915236;29;20527;-37
2021/10/21 05:06:23;;;;;;;21.08;12.38;;;;;;;;;;4915059;29;20123;-37
2021/10/21 05:08:48;;;;;;;24.20;12.40;;;;;;;;;;4914846;29;20029;-37
2021/10/21 05:11:14;;;;;;;19.40;11.48;;;;;;;;;;4914992;29;20479;-37
2021/10/21 05:13:39;;;;;;;16.58;11.55;;;;;;;;;;4915031;29;20048;-37
2021/10/21 05:16:04;;;;;;;19.05;11.00;;;;;;;;;;4915167;29;20040;-37
2021/10/21 05:18:30;;;;;;;26.70;12.98;;;;;;;;;;4914837;29;20028;-37
2021/10/21 05:20:55;;;;;;;18.52;10.48;;;;;;;;;;4914876;29;20036;-37
2021/10/21 05:23:21;;;;;;;20.33;11.57;;;;;;;;;;4914865;29;20016;-37
2021/10/21 05:25:46;;;;;;;21.88;10.70;;;;;;;;;;4914793;29;20047;-37
2021/10/21 05:28:13;;;;;;;19.13;10.18;;;;;;;;;;4915037;29;20036;-37
2021/10/21 05:30:39;;;;;;;19.00;10.95;;;;;;;;;;4914775;29;20068;-37
2021/10/21 05:33:04;;;;;;;17.42;10.18;;;;;;;;;;4914037;29;20048;-37
2021/10/21 05:35:30;;;;;;;18.85;11.55;;;;;;;;;;4918571;29;20055;-37
2021/10/21 05:37:55;;;;;;;19.63;12.32;;;;;;;;;;4918554;29;20059;-37
2021/10/21 05:40:21;;;;;;;24.55;13.20;;;;;;;;;;4918265;29;20487;-37
2021/10/21 05:42:47;;;;;;;18.23;10.45;;;;;;;;;;4917481;29;20028;-37
2021/10/21 05:45:12;;;;;;;21.45;11.18;;;;;;;;;;4918387;29;20498;-37
2021/10/21 05:47:38;;;;;;;18.38;11.43;;;;;;;;;;4918258;29;20111;-37
2021/10/21 05:50:04;;;;;;;20.15;10.20;;;;;;;;;;4918246;29;20502;-37
2021/10/21 05:52:29;;;;;;;16.77;10.82;;;;;;;;;;4918145;29;20059;-37
2021/10/21 05:54:55;;;;;;;19.40;11.57;;;;;;;;;;4918172;29;20063;-37
2021/10/21 05:57:21;;;;;;;21.25;10.70;;;;;;;;;;4918104;29;20036;-37
2021/10/21 05:59:46;;;;;;;20.73;10.20;;;;;;;;;;4917962;29;20066;-37
2021/10/21 06:02:12;;;;;;;20.08;11.85;;;;;;;;;;4918375;29;20048;-37
2021/10/21 06:04:37;;;;;;;19.63;10.25;;;;;;;;;;4916667;29;20172;-37
2021/10/21 06:07:03;;;;;;;16.10;9.13;;;;;;;;;;4917864;29;20024;-37
2021/10/21 06:09:29;;;;;;;14.40;9.55;;;;;;;;;;4916613;29;20047;-37
2021/10/21 06:11:54;;;;;;;17.40;8.88;;;;;;;;;;4917916;29;20028;-37
2021/10/21 06:14:21;;;;;;;19.65;9.45;;;;;;;;;;4917760;29;20106;-37
2021/10/21 06:16:48;;;;;;;19.52;9.77;;;;;;;;;;4918046;29;20136;-37
2021/10/21 06:19:14;;;;;;;17.88;10.38;;;;;;;;;;4917773;29;20124;-37
2021/10/21 06:21:40;;;;;;;20.88;10.50;;;;;;;;;;4917672;29;20463;-37
2021/10/21 06:24:06;;;;;;;16.63;10.07;;;;;;;;;;4917850;29;20111;-37
2021/10/21 06:26:31;;;;;;;18.85;9.25;;;;;;;;;;4917881;29;20092;-37
2021/10/21 06:28:57;;;;;;;17.30;9.82;;;;;;;;;;4917643;29;20511;-37
2021/10/21 06:31:22;;;;;;;16.23;9.88;;;;;;;;;;4917495;29;20036;-37
2021/10/21 06:33:48;;;;;;;16.52;9.38;;;;;;;;;;4917347;29;20128;-37
2021/10/21 06:36:14;;;;;;;17.75;9.90;;;;;;;;;;4917384;29;20088;-37
2021/10/21 06:38:39;;;;;;;16.92;10.50;;;;;;;;;;4917336;29;20043;-37
2021/10/21 06:41:05;;;;;;;12.57;8.60;;;;;;;;;;4917457;29;20024;-37
2021/10/21 06:43:31;;;;;;;14.40;8.65;;;;;;;;;;4917174;29;20674;-37
2021/10/21 06:45:57;;;;;;;13.75;8.48;;;;;;;;;;4916329;29;20024;-37
2021/10/21 06:48:22;;;;;;;12.98;8.02;;;;;;;;;;4917170;29;20043;-37
2021/10/21 06:50:48;;;;;;;13.88;7.60;;;;;;;;;;4917425;29;20383;-37
2021/10/21 06:53:13;;;;;;;12.23;8.43;;;;;;;;;;4917256;29;20444;-37
2021/10/21 06:55:39;;;;;;;13.23;7.63;;;;;;;;;;4917105;29;20416;-37
2021/10/21 06:58:04;;;;;;;18.20;7.75;;;;;;;;;;4917304;29;20403;-37
2021/10/21 07:00:36;;;;;;;10.73;7.05;;;;;;;;;;4916930;29;20456;-37
2021/10/21 07:03:01;;;;;;;14.15;7.93;;;;;;;;;;4917003;29;20036;-37
2021/10/21 07:05:28;;;;;;;10.10;6.90;;;;;;;;;;4916903;29;20035;-37
2021/10/21 07:07:54;;;;;;;11.20;7.18;;;;;;;;;;4915830;29;20164;-37
2021/10/21 07:10:21;;;;;;;9.13;5.57;;;;;;;;;;4916827;29;20103;-37
2021/10/21 07:12:47;;;;;;;13.43;7.45;;;;;;;;;;4916959;29;20078;-37
2021/10/21 07:15:13;;;;;;;9.18;6.60;;;;;;;;;;4916783;29;20493;-37
2021/10/21 07:17:40;;;;;;;10.07;6.13;;;;;;;;;;4916625;29;20052;-37
2021/10/21 07:20:06;;;;;;;8.73;6.47;;;;;;;;;;4916622;29;20024;-37
2021/10/21 07:22:31;;;;;;;10.65;6.00;;;;;;;;;;4915342;29;20040;-37
2021/10/21 07:24:57;;;;;;;10.95;7.63;;;;;;;;;;4931152;29;20052;-37
2021/10/21 07:27:22;;;;;;;12.85;6.53;;;;;;;;;;4916372;29;20036;-37
2021/10/21 07:29:48;;;;;;;9.23;6.05;;;;;;;;;;4916548;29;20024;-37
2021/10/21 07:32:14;;;;;;;8.75;5.70;;;;;;;;;;4916463;29;20036;-38
2021/10/21 07:34:42;;;;;;;12.25;7.03;;;;;;;;;;4916367;29;20032;-37
2021/10/21 07:37:08;;;;;;;5.93;5.15;;;;;;;;;;4915434;29;20082;-37
2021/10/21 07:39:33;;;;;;;11.13;6.28;;;;;;;;;;4916192;29;20027;-37
2021/10/21 07:42:00;;;;;;;10.88;5.75;;;;;;;;;;4916308;29;20336;-37
2021/10/21 07:44:26;;;;;;;11.32;5.45;;;;;;;;;;4916176;29;20051;-37
2021/10/21 07:46:52;;;;;;;12.05;6.05;;;;;;;;;;4916164;29;20091;-37
2021/10/21 07:49:17;;;;;;;15.80;6.57;;;;;;;;;;4916039;29;20024;-37
2021/10/21 07:51:43;;;;;;;11.38;5.40;;;;;;;;;;4916322;29;20053;-37
2021/10/21 07:54:09;;;;;;;8.23;5.68;;;;;;;;;;4916095;29;20472;-38
2021/10/21 07:56:35;;;;;;;8.20;5.53;;;;;;;;;;4915585;29;20103;-38
2021/10/21 07:59:01;;;;;;;8.15;4.82;;;;;;;;;;4916044;29;20027;-37
2021/10/21 08:01:26;;;;;;;9.52;5.55;;;;;;;;;;4916126;29;20063;-37
2021/10/21 08:03:52;;;;;;;13.85;5.35;;;;;;;;;;4915911;29;20463;-37
2021/10/21 08:06:17;;;;;;;7.65;4.50;;;;;;;;;;4916112;29;20115;-38
2021/10/21 08:08:43;;;;;;;7.30;5.00;;;;;;;;;;4914547;29;20020;-37
2021/10/21 08:11:08;;;;;;;8.43;5.93;;;;;;;;;;4914586;29;20056;-40
2021/10/21 08:13:34;;;;;;;9.18;5.20;;;;;;;;;;4915987;29;20377;-37
2021/10/21 08:15:59;;;;;;;9.15;5.45;;;;;;;;;;4915506;29;20397;-37
2021/10/21 08:18:25;;;;;;;7.32;3.95;;;;;;;;;;4915693;29;20016;-37
2021/10/21 08:20:50;;;;;;;7.68;5.03;;;;;;;;;;4915857;29;20360;-37
2021/10/21 08:23:16;;;;;;;8.45;4.70;;;;;;;;;;4915529;29;20028;-37
2021/10/21 08:25:42;;;;;;;7.85;4.68;;;;;;;;;;4915781;29;20153;-37
2021/10/21 08:28:09;;;;;;;7.70;4.85;;;;;;;;;;4915667;29;20109;-37
2021/10/21 08:30:37;;;;;;;8.45;4.30;;;;;;;;;;4915407;29;20040;-37
2021/10/21 08:33:03;;;;;;;9.23;4.63;;;;;;;;;;4915349;29;20059;-38
2021/10/21 08:35:29;;;;;;;7.82;4.78;;;;;;;;;;4915444;29;20055;-37
2021/10/21 08:37:56;;;;;;;7.00;4.60;;;;;;;;;;4915298;29;20128;-37
2021/10/21 08:40:21;;;;;;;9.93;4.55;;;;;;;;;;4915293;29;20040;-37
2021/10/21 08:42:47;;;;;;;7.90;4.32;;;;;;;;;;4915333;29;20031;-37
2021/10/21 08:45:13;;;;;;;6.47;4.38;;;;;;;;;;4915528;29;20036;-37
2021/10/21 08:47:41;;;;;;;7.45;4.40;;;;;;;;;;4915138;29;20510;-37
2021/10/21 08:50:07;;;;;;;8.32;4.43;;;;;;;;;;4915272;29;20176;-37
2021/10/21 08:52:32;;;;;;;7.28;4.07;;;;;;;;;;4915085;29;20103;-37
2021/10/21 08:54:58;;;;;;;7.30;4.40;;;;;;;;;;4915240;29;20475;-37
2021/10/21 08:57:26;;;;;;;6.45;4.65;;;;;;;;;;4914967;29;20043;-37
2021/10/21 08:59:51;;;;;;;6.47;4.25;;;;;;;;;;4915143;29;20428;-37
2021/10/21 09:08:01;;;;;;;5.15;3.63;;;;;;;;;;4915147;29;20036;-37
2021/10/21 09:10:28;;;;;;;7.07;4.53;;;;;;;;;;4919034;29;20028;-37
2021/10/21 09:12:54;;;;;;;7.72;4.47;;;;;;;;;;4919102;29;20103;-37
2021/10/21 09:15:20;;;;;;;15.05;4.75;;;;;;;;;;4919172;29;20107;-37
2021/10/21 09:17:47;;;;;;;6.95;3.50;;;;;;;;;;4918799;29;20028;-37
2021/10/21 09:20:22;;;;;;;6.18;5.00;;;;;;;;;;4918875;29;20087;-37
2021/10/21 09:23:07;;;;;;;5.72;3.55;;;;;;;;;;4917504;29;20040;-37
2021/10/21 09:25:34;;;;;;;8.00;4.57;;;;;;;;;;4918807;29;20074;-38
2021/10/21 09:28:01;;;;;;;7.70;4.18;;;;;;;;;;4918615;29;20027;-37
2021/10/21 09:30:31;;;;;;;14.13;4.82;;;;;;;;;;4917409;29;20032;-38
2021/10/21 09:33:06;;;;;;;6.43;4.57;;;;;;;;;;4918361;29;20503;-37
2021/10/21 09:35:35;;;;;;;7.85;4.60;;;;;;;;;;4918802;29;20115;-38
2021/10/21 09:38:01;;;;;;;8.65;5.07;;;;;;;;;;4918472;29;20135;-37
2021/10/21 09:40:30;;;;;;;8.32;4.30;;;;;;;;;;4918298;29;20032;-37
2021/10/21 09:42:56;;;;;;;8.70;5.15;;;;;;;;;;4918743;29;20412;-38
2021/10/21 09:45:23;;;;;;;8.70;5.05;;;;;;;;;;4917100;29;20036;-38
2021/10/21 09:47:50;;;;;;;6.50;4.70;;;;;;;;;;4918482;29;20035;-38
2021/10/21 09:50:16;;;;;;;12.45;5.70;;;;;;;;;;4918571;29;20088;-37
2021/10/21 09:52:41;;;;;;;7.70;5.20;;;;;;;;;;4918419;29;20020;-37
2021/10/21 09:55:10;;;;;;;10.18;4.72;;;;;;;;;;4917003;29;20184;-38
2021/10/21 09:57:36;;;;;;;6.78;5.57;;;;;;;;;;4917974;29;20036;-37
2021/10/21 10:00:05;;;;;;;7.30;4.50;;;;;;;;;;4918215;29;20040;-39
2021/10/21 10:02:38;;;;;;;15.43;5.50;;;;;;;;;;4917996;29;20028;-38
2021/10/21 10:05:04;;;;;;;7.30;3.90;;;;;;;;;;4916784;29;20400;-37
2021/10/21 10:07:34;;;;;;;6.78;4.43;;;;;;;;;;4917984;29;20051;-37
2021/10/21 10:10:01;;;;;;;5.25;4.13;;;;;;;;;;4918171;29;20032;-37
2021/10/21 10:12:28;;;;;;;4.47;3.50;;;;;;;;;;4918152;29;20055;-37
2021/10/21 10:14:54;;;;;;;6.47;4.35;;;;;;;;;;4918141;29;20103;-37
2021/10/21 10:17:21;;;;;;;5.90;4.10;;;;;;;;;;4917990;29;20491;-38
2021/10/21 10:19:48;;;;;;;8.35;4.57;;;;;;;;;;4917798;29;20063;-37
2021/10/21 10:22:15;;;;;;;6.45;4.22;;;;;;;;;;4917870;29;20028;-37
2021/10/21 10:24:41;;;;;;;13.52;5.20;;;;;;;;;;4917550;29;20043;-37
2021/10/21 10:27:39;;;;;;;8.90;4.90;;;;;;;;;;4917825;29;20024;-37
2021/10/21 10:30:05;;;;;;;10.10;5.25;;;;;;;;;;4885678;29;20476;-38
2021/10/21 10:32:30;;;;;;;9.52;4.93;;;;;;;;;;4917503;29;20028;-38
2021/10/21 10:34:57;;;;;;;10.27;6.40;;;;;;;;;;4917566;29;20036;-37
2021/10/21 10:37:23;;;;;;;8.00;5.00;;;;;;;;;;4917283;29;20432;-37
2021/10/21 10:39:51;;;;;;;7.28;5.65;;;;;;;;;;4917411;29;20036;-38
2021/10/21 10:42:17;;;;;;;7.25;4.93;;;;;;;;;;4917402;29;20016;-38
2021/10/21 10:44:48;;;;;;;9.00;5.38;;;;;;;;;;4917454;29;20028;-37
2021/10/21 10:47:15;;;;;;;13.57;6.20;;;;;;;;;;4916029;29;20039;-38
2021/10/21 10:49:44;;;;;;;8.88;6.00;;;;;;;;;;4917414;29;20127;-38
2021/10/21 10:52:16;;;;;;;8.75;5.30;;;;;;;;;;4917458;29;20040;-37
2021/10/21 10:54:51;;;;;;;7.45;4.75;;;;;;;;;;4917357;29;20032;-37
2021/10/21 10:57:19;;;;;;;6.63;4.65;;;;;;;;;;4917080;29;20120;-37
2021/10/21 10:59:46;;;;;;;8.20;4.45;;;;;;;;;;4916962;29;20072;-37
2021/10/21 11:02:25;;;;;;;10.63;4.72;;;;;;;;;;4931661;29;20475;-38
2021/10/21 11:04:50;;;;;;;7.32;4.22;;;;;;;;;;4916996;29;20084;-37
2021/10/21 11:07:16;;;;;;;7.43;4.38;;;;;;;;;;4915658;29;20020;-37
2021/10/21 11:09:43;;;;;;;7.13;3.90;;;;;;;;;;4916839;29;20111;-37
2021/10/21 11:12:12;;;;;;;5.70;3.20;;;;;;;;;;4916969;29;20016;-38
2021/10/21 11:14:39;;;;;;;6.57;4.53;;;;;;;;;;4916924;29;20047;-38
2021/10/21 11:17:05;;;;;;;5.97;4.63;;;;;;;;;;4916662;29;20040;-37
2021/10/21 11:19:42;;;;;;;4.68;3.13;;;;;;;;;;4916766;29;20034;-37
2021/10/21 11:22:12;;;;;;;6.95;4.15;;;;;;;;;;4916858;29;20036;-37
2021/10/21 11:24:47;;;;;;;9.13;3.95;;;;;;;;;;4916549;29;20024;-37
2021/10/21 11:27:39;;;;;;;5.78;3.88;;;;;;;;;;4916386;29;20036;-37
2021/10/21 11:30:08;;;;;;;9.68;3.13;;;;;;;;;;4910651;29;20064;-37
2021/10/21 11:32:34;;;;;;;3.33;3.03;;;;;;;;;;4915802;29;20035;-38
2021/10/21 11:35:03;;;;;;;5.05;3.78;;;;;;;;;;4916534;29;20472;-38
2021/10/21 11:37:45;;;;;;;4.90;3.38;;;;;;;;;;4916133;29;20155;-37
2021/10/21 11:40:34;;;;;;;4.57;2.67;;;;;;;;;;4916402;29;20043;-37
2021/10/21 11:43:01;;;;;;;9.80;2.90;;;;;;;;;;4908747;29;20048;-37
2021/10/21 11:45:32;;;;;;;3.63;2.58;;;;;;;;;;4914882;29;20024;-37
2021/10/21 11:47:58;;;;;;;2.90;2.60;;;;;;;;;;4916488;29;20054;-37
2021/10/21 11:50:34;;;;;;;3.28;2.10;;;;;;;;;;4916038;29;20383;-37
2021/10/21 11:53:00;;;;;;;7.25;2.47;;;;;;;;;;4916171;29;20038;-37
2021/10/21 11:55:29;;;;;;;6.28;2.90;;;;;;;;;;4916021;29;20020;-37
2021/10/21 11:58:00;;;;;;;4.68;3.22;;;;;;;;;;4916074;29;20114;-37
2021/10/21 12:00:27;;;;;;;4.95;3.42;;;;;;;;;;4915888;29;20036;-37
2021/10/21 12:02:57;;;;;;;4.38;3.05;;;;;;;;;;4915764;29;20820;-37
2021/10/21 12:05:23;;;;;;;9.90;3.53;;;;;;;;;;4916104;29;20510;-37
2021/10/21 12:07:50;;;;;;;6.28;3.78;;;;;;;;;;4916047;29;20020;-37
2021/10/21 12:10:23;;;;;;;6.68;3.22;;;;;;;;;;4915871;29;20450;-37
2021/10/21 12:12:48;;;;;;;;;;;;;;;;;;4916167;29;20502;-37
2021/10/21 12:15:15;;;;;;;2.65;2.13;;;;;;;;;;4914656;29;19911;-37
2021/10/21 12:17:41;;;;;;;4.00;3.15;;;;;;;;;;4915408;29;20036;-37
2021/10/21 12:20:08;;;;;;;4.70;3.08;;;;;;;;;;4915610;29;20024;-37
2021/10/21 12:22:37;;;;;;;5.43;3.22;;;;;;;;;;4915661;29;20080;-37
2021/10/21 12:25:03;;;;;;;3.20;2.55;;;;;;;;;;4915462;29;20538;-37
2021/10/21 12:27:29;;;;;;;5.93;3.03;;;;;;;;;;4915505;29;20028;-37
2021/10/21 12:30:03;;;;;;;5.75;3.88;;;;;;;;;;4915601;29;20463;-37
2021/10/21 12:32:28;;;;;;;4.55;2.88;;;;;;;;;;4915158;29;20044;-37
2021/10/21 12:35:08;;;;;;;3.72;2.85;;;;;;;;;;4915556;29;20096;-37
2021/10/21 12:37:39;;;;;;;4.13;2.53;;;;;;;;;;4915222;29;20043;-37
2021/10/21 12:40:12;;;;;;;3.63;2.53;;;;;;;;;;4915425;29;20111;-37
2021/10/21 12:42:37;;;;;;;;;;;;;;;;;;4914888;29;20463;-37
2021/10/21 12:45:05;;;;;;;6.30;2.72;;;;;;;;;;4915566;29;19955;-37
2021/10/21 12:47:31;;;;;;;5.80;2.35;;;;;;;;;;4898403;29;20115;-37
2021/10/21 12:50:01;;;;;;;5.22;3.63;;;;;;;;;;4915193;29;20024;-38
2021/10/21 12:52:30;;;;;;;4.60;2.97;;;;;;;;;;4915189;29;20068;-37
2021/10/21 12:55:27;;;;;;;4.47;2.92;;;;;;;;;;4915232;29;20035;-37
2021/10/21 12:58:02;;;;;;;6.40;3.47;;;;;;;;;;4903458;29;20507;-42
2021/10/21 13:00:48;;;;;;;7.55;4.03;;;;;;;;;;4913885;29;20036;-37
2021/10/21 13:03:17;;;;;;;6.38;3.20;;;;;;;;;;4915134;29;20100;-37
2021/10/21 13:05:44;;;;;;;3.53;2.78;;;;;;;;;;4915246;29;20036;-37
2021/10/21 13:08:10;;;;;;;4.57;2.67;;;;;;;;;;4915037;29;20051;-37
2021/10/21 13:10:44;;;;;;;5.15;3.10;;;;;;;;;;4914912;29;20016;-37
2021/10/21 13:13:19;;;;;;;4.20;3.28;;;;;;;;;;4915011;29;20494;-37
2021/10/21 13:15:44;;;;;;;4.47;3.20;;;;;;;;;;4914919;29;20035;-37
2021/10/21 13:18:10;;;;;;;6.15;3.42;;;;;;;;;;4915101;29;20036;-37
2021/10/21 13:20:35;;;;;;;5.05;3.90;;;;;;;;;;4914924;29;20104;-37
2021/10/21 13:23:01;;;;;;;6.28;2.90;;;;;;;;;;4915084;29;20039;-37
2021/10/21 13:25:26;;;;;;;5.20;3.28;;;;;;;;;;4915070;29;20380;-37
2021/10/21 13:27:54;;;;;;;9.15;3.17;;;;;;;;;;4929458;29;20414;-37
2021/10/21 13:30:19;;;;;;;3.85;3.10;;;;;;;;;;4914812;29;20073;-37
2021/10/21 13:32:45;;;;;;;5.00;3.22;;;;;;;;;;4914689;29;20585;-37
2021/10/21 13:35:11;;;;;;;6.03;3.28;;;;;;;;;;4915396;29;20032;-37
2021/10/21 13:37:37;;;;;;;4.32;2.88;;;;;;;;;;4913640;29;20476;-37
2021/10/21 13:40:03;;;;;;;9.77;4.00;;;;;;;;;;4914783;29;20044;-37
2021/10/21 13:42:28;;;;;;;4.90;3.83;;;;;;;;;;4914912;29;20108;-36
2021/10/21 13:44:54;;;;;;;6.70;3.40;;;;;;;;;;4914759;29;20531;-37
2021/10/21 13:47:20;;;;;;;8.60;3.78;;;;;;;;;;4914995;29;20040;-37
2021/10/21 13:49:46;;;;;;;5.22;3.95;;;;;;;;;;4914479;29;20024;-37
2021/10/21 13:52:11;;;;;;;5.35;4.18;;;;;;;;;;4915015;29;20160;-37
2021/10/21 13:54:37;;;;;;;5.55;3.40;;;;;;;;;;4915945;29;20464;-37
2021/10/21 13:57:03;;;;;;;4.63;3.20;;;;;;;;;;4918358;29;20036;-37
2021/10/21 13:59:29;;;;;;;5.50;2.65;;;;;;;;;;4917919;29;20028;-37
2021/10/21 14:01:58;;;;;;;4.70;3.38;;;;;;;;;;4933028;29;20074;-37
2021/10/21 14:04:23;;;;;;;7.07;3.60;;;;;;;;;;4918112;29;20028;-37
2021/10/21 14:06:50;;;;;;;3.70;3.22;;;;;;;;;;4917971;29;20510;-37
2021/10/21 14:09:15;;;;;;;8.70;3.45;;;;;;;;;;4918138;29;20034;-37
2021/10/21 14:11:41;;;;;;;3.22;2.83;;;;;;;;;;4917756;29;20118;-37
2021/10/21 14:14:07;;;;;;;5.43;3.20;;;;;;;;;;4932815;29;20063;-37
2021/10/21 14:16:34;;;;;;;8.88;3.03;;;;;;;;;;4917811;29;20128;-37
2021/10/21 14:19:01;;;;;;;4.05;2.85;;;;;;;;;;4932410;29;20032;-37
2021/10/21 14:21:26;;;;;;;5.90;2.78;;;;;;;;;;4917715;29;20062;-37
2021/10/21 14:23:52;;;;;;;5.80;3.17;;;;;;;;;;4917758;29;20064;-37
2021/10/21 14:26:18;;;;;;;3.40;2.78;;;;;;;;;;4917944;29;20486;-37
2021/10/21 14:28:43;;;;;;;3.47;2.60;;;;;;;;;;4900645;29;20043;-37
2021/10/21 14:31:09;;;;;;;5.82;2.88;;;;;;;;;;4916677;29;20024;-38
2021/10/21 14:33:35;;;;;;;5.63;3.25;;;;;;;;;;4917247;29;20563;-38
2021/10/21 14:36:00;;;;;;;4.38;2.63;;;;;;;;;;4916337;29;20024;-37